Time;durP1;ratioP1;P1;durP2;ratioP2;P2;SDS_P1;SDS_P2;PMS_P1;PMS_P2;Temp;Humidity;BMP_temperature;BMP_pressure;BME280_temperature;BME280_humidity;BME280_pressure;Samples;Min_cycle;Max_cycle;Signal;HPM_P1;HPM_P2
2021/06/02 00:00:16;;;;;;;2.28;1.80;;;19.70;52.00;;;;;;3124673;28;20517;-83
2021/06/02 00:01:49;;;;;;;1.75;1.52;;;19.70;52.00;;;;;;3126260;28;20061;-83
2021/06/02 00:03:20;;;;;;;2.53;1.77;;;19.70;52.00;;;;;;3127138;28;20072;-83
2021/06/02 00:04:51;;;;;;;2.85;1.73;;;19.80;52.00;;;;;;3126696;28;20049;-82
2021/06/02 00:06:22;;;;;;;1.55;1.45;;;19.70;52.00;;;;;;3127367;28;20362;-83
2021/06/02 00:07:53;;;;;;;2.10;1.55;;;19.70;52.00;;;;;;3126717;28;20105;-83
2021/06/02 00:09:24;;;;;;;2.10;1.42;;;19.70;52.00;;;;;;3126684;28;20100;-83
2021/06/02 00:10:55;;;;;;;1.65;1.50;;;19.70;52.10;;;;;;3125900;28;20445;-83
2021/06/02 00:12:27;;;;;;;1.70;1.60;;;19.70;52.00;;;;;;3126910;28;20088;-82
2021/06/02 00:13:57;;;;;;;1.60;1.50;;;19.80;52.00;;;;;;3127057;28;20046;-82
2021/06/02 00:15:30;;;;;;;2.20;1.60;;;19.70;52.00;;;;;;3125324;28;20041;-82
2021/06/02 00:17:01;;;;;;;2.00;1.50;;;19.80;52.00;;;;;;3126787;28;20064;-83
2021/06/02 00:18:32;;;;;;;1.50;1.40;;;19.70;51.90;;;;;;3126654;28;20056;-82
2021/06/02 00:20:04;;;;;;;2.20;1.70;;;19.70;52.00;;;;;;3126355;28;20495;-82
2021/06/02 00:21:34;;;;;;;1.80;1.58;;;19.80;52.00;;;;;;3126849;28;20064;-83
2021/06/02 00:23:05;;;;;;;1.90;1.63;;;19.70;52.00;;;;;;3126139;28;20424;-82
2021/06/02 00:24:38;;;;;;;1.83;1.67;;;19.80;52.00;;;;;;3127052;28;20068;-83
2021/06/02 00:26:09;;;;;;;1.50;1.40;;;19.80;52.00;;;;;;3126290;28;20049;-84
2021/06/02 00:27:41;;;;;;;2.17;1.50;;;19.70;51.90;;;;;;3126562;28;20100;-82
2021/06/02 00:29:12;;;;;;;1.60;1.50;;;19.80;51.90;;;;;;3127681;28;20057;-82
2021/06/02 00:30:46;;;;;;;2.05;1.48;;;19.80;52.00;;;;;;3125368;28;20060;-82
2021/06/02 00:32:17;;;;;;;2.03;1.50;;;19.70;51.90;;;;;;3126782;28;20049;-83
2021/06/02 00:33:47;;;;;;;1.70;1.60;;;19.80;52.00;;;;;;3126882;28;20110;-82
2021/06/02 00:35:18;;;;;;;4.25;1.60;;;19.70;51.90;;;;;;3126720;28;20513;-83
2021/06/02 00:36:49;;;;;;;1.80;1.50;;;19.80;52.00;;;;;;3125804;28;20095;-83
2021/06/02 00:38:20;;;;;;;1.48;1.38;;;19.80;51.90;;;;;;3127623;28;20494;-82
2021/06/02 00:39:51;;;;;;;1.67;1.55;;;19.80;51.90;;;;;;3126606;28;20053;-83
2021/06/02 00:41:22;;;;;;;1.88;1.45;;;19.70;51.90;;;;;;3126430;28;20074;-83
2021/06/02 00:42:53;;;;;;;1.63;1.50;;;19.80;51.90;;;;;;3126357;28;20476;-81
2021/06/02 00:44:24;;;;;;;1.52;1.42;;;19.70;51.90;;;;;;3126229;28;20042;-83
2021/06/02 00:45:57;;;;;;;1.60;1.50;;;19.70;51.90;;;;;;3126551;28;20103;-82
2021/06/02 00:47:27;;;;;;;1.23;1.13;;;19.70;51.90;;;;;;3128282;28;20084;-82
2021/06/02 00:48:59;;;;;;;1.88;1.70;;;19.70;51.90;;;;;;3128256;28;20042;-83
2021/06/02 00:50:31;;;;;;;1.40;1.30;;;19.70;51.90;;;;;;3128029;28;20048;-81
2021/06/02 00:52:03;;;;;;;1.55;1.33;;;19.70;51.90;;;;;;3128989;28;20056;-82
2021/06/02 00:53:35;;;;;;;1.55;1.40;;;19.70;51.90;;;;;;3129397;28;20049;-82
2021/06/02 00:55:06;;;;;;;1.50;1.40;;;19.70;51.90;;;;;;3128115;28;20046;-81
2021/06/02 00:56:38;;;;;;;1.50;1.40;;;19.70;51.90;;;;;;3128454;28;20046;-83
2021/06/02 00:58:14;;;;;;;2.03;1.23;;;19.70;51.90;;;;;;3128915;28;20052;-82
2021/06/02 00:59:50;;;;;;;2.63;1.50;;;19.70;51.90;;;;;;3127991;28;20854;-81
2021/06/02 01:01:22;;;;;;;1.83;1.48;;;19.70;51.90;;;;;;3127210;28;20057;-81
2021/06/02 01:02:53;;;;;;;1.83;1.35;;;19.70;51.90;;;;;;3127994;28;20049;-82
2021/06/02 01:04:26;;;;;;;1.60;1.50;;;19.70;51.90;;;;;;3128800;28;20064;-83
2021/06/02 01:05:57;;;;;;;1.25;1.15;;;19.80;51.90;;;;;;3127937;28;20050;-83
2021/06/02 01:07:28;;;;;;;1.60;1.30;;;19.70;51.90;;;;;;3127939;28;20076;-82
2021/06/02 01:08:59;;;;;;;1.25;1.15;;;19.70;51.90;;;;;;3127975;28;20052;-82
2021/06/02 01:10:30;;;;;;;1.63;1.42;;;19.70;51.90;;;;;;3127801;28;20065;-82
2021/06/02 01:12:01;;;;;;;2.22;1.60;;;19.70;51.90;;;;;;3127849;28;20542;-82
2021/06/02 01:13:33;;;;;;;1.52;1.42;;;19.70;51.90;;;;;;3127980;28;20068;-83
2021/06/02 01:15:05;;;;;;;1.50;1.40;;;19.70;51.90;;;;;;3127315;28;20053;-82
2021/06/02 01:16:37;;;;;;;2.42;1.48;;;19.70;51.90;;;;;;3128037;28;20042;-82
2021/06/02 01:18:09;;;;;;;1.50;1.40;;;19.70;51.90;;;;;;3127778;28;20540;-82
2021/06/02 01:19:40;;;;;;;2.15;1.33;;;19.70;51.90;;;;;;3128481;28;20053;-82
2021/06/02 01:21:11;;;;;;;1.52;1.30;;;19.70;51.80;;;;;;3128456;28;20041;-83
2021/06/02 01:22:43;;;;;;;1.38;1.27;;;19.70;51.90;;;;;;3128035;28;20049;-83
2021/06/02 01:24:14;;;;;;;2.42;1.40;;;19.70;51.90;;;;;;3128600;28;20054;-82
2021/06/02 01:25:46;;;;;;;1.85;1.33;;;19.70;51.90;;;;;;3127997;28;20057;-83
2021/06/02 01:27:17;;;;;;;2.08;1.60;;;19.70;51.80;;;;;;3129461;28;20046;-83
2021/06/02 01:28:47;;;;;;;1.48;1.38;;;19.70;51.90;;;;;;3128544;28;20049;-82
2021/06/02 01:30:19;;;;;;;1.70;1.40;;;19.70;51.80;;;;;;3127925;28;20057;-83
2021/06/02 01:32:22;;;;;;;1.52;1.25;;;19.70;51.80;;;;;;3128825;28;20076;-82
2021/06/02 01:33:59;;;;;;;1.85;1.48;;;19.70;51.90;;;;;;3129033;28;20053;-82
2021/06/02 01:35:51;;;;;;;1.50;1.40;;;19.70;51.90;;;;;;3128735;28;20159;-82
2021/06/02 01:37:29;;;;;;;1.27;1.17;;;19.70;51.90;;;;;;3129002;28;20080;-82
2021/06/02 01:39:34;;;;;;;1.30;1.20;;;19.70;51.90;;;;;;3129170;28;20083;-82
2021/06/02 01:41:24;;;;;;;1.35;1.25;;;19.70;51.90;;;;;;3128393;28;20119;-82
2021/06/02 01:43:06;;;;;;;1.70;1.50;;;19.70;51.90;;;;;;3128651;28;20053;-82
2021/06/02 01:45:16;;;;;;;1.30;1.20;;;19.70;51.90;;;;;;3129801;28;20073;-83
2021/06/02 01:47:07;;;;;;;2.13;1.50;;;19.70;51.90;;;;;;3128447;28;20498;-82
2021/06/02 01:48:47;;;;;;;1.52;1.40;;;19.70;51.80;;;;;;3128618;28;20049;-82
2021/06/02 01:50:40;;;;;;;1.45;1.30;;;19.70;51.80;;;;;;3128783;28;20057;-83
2021/06/02 01:52:56;;;;;;;2.05;1.33;;;19.70;51.90;;;;;;3129407;28;20104;-82
2021/06/02 01:55:04;;;;;;;1.23;1.10;;;19.70;51.80;;;;;;3091719;28;20136;-82
2021/06/02 01:57:07;;;;;;;1.58;1.40;;;19.70;51.80;;;;;;3125720;28;20329;-82
2021/06/02 01:59:11;;;;;;;1.65;1.30;;;19.70;51.80;;;;;;3096865;28;20109;-82
2021/06/02 02:00:44;;;;;;;1.75;1.50;;;19.70;51.90;;;;;;3126840;28;20552;-82
2021/06/02 02:02:41;;;;;;;1.75;1.30;;;19.70;51.90;;;;;;3127950;28;20056;-82
2021/06/02 02:04:46;;;;;;;1.55;1.40;;;19.70;51.90;;;;;;3117405;28;20164;-83
2021/06/02 02:06:37;;;;;;;1.20;1.10;;;19.70;51.80;;;;;;3088873;28;20054;-82
2021/06/02 02:08:27;;;;;;;1.73;1.20;;;19.70;51.90;;;;;;3121843;28;20053;-83
2021/06/02 02:10:05;;;;;;;1.20;1.10;;;19.70;51.90;;;;;;3126929;28;20037;-84
2021/06/02 02:11:37;;;;;;;1.33;1.10;;;19.70;51.90;;;;;;3126407;28;20065;-84
2021/06/02 02:13:15;;;;;;;1.40;1.30;;;19.70;51.90;;;;;;3126376;28;20046;-84
2021/06/02 02:14:57;;;;;;;1.67;1.15;;;19.70;51.90;;;;;;3127231;28;20045;-83
2021/06/02 02:16:34;;;;;;;1.23;1.13;;;19.70;51.90;;;;;;3126611;28;20041;-82
2021/06/02 02:18:19;;;;;;;1.25;1.15;;;19.70;51.90;;;;;;3127989;28;20070;-82
2021/06/02 02:19:53;;;;;;;1.67;1.02;;;19.70;51.90;;;;;;3126898;28;20055;-83
2021/06/02 02:21:39;;;;;;;1.55;1.08;;;19.70;51.80;;;;;;3127268;28;20094;-83
2021/06/02 02:23:19;;;;;;;1.40;1.10;;;19.70;51.80;;;;;;3127503;28;20072;-83
2021/06/02 02:24:51;;;;;;;1.60;1.27;;;19.70;51.80;;;;;;3127233;28;20045;-82
2021/06/02 02:26:27;;;;;;;1.00;0.90;;;19.70;51.80;;;;;;3126441;28;20676;-82
2021/06/02 02:28:05;;;;;;;1.20;1.10;;;19.70;51.80;;;;;;3127450;28;20085;-82
2021/06/02 02:29:44;;;;;;;1.27;1.10;;;19.70;51.80;;;;;;3127923;28;20057;-82
2021/06/02 02:31:23;;;;;;;1.88;1.05;;;19.70;51.80;;;;;;3126068;28;20041;-82
2021/06/02 02:33:04;;;;;;;1.70;1.13;;;19.70;51.80;;;;;;3127407;28;20053;-82
2021/06/02 02:34:44;;;;;;;1.30;1.20;;;19.70;51.80;;;;;;3127743;28;20052;-82
2021/06/02 02:36:20;;;;;;;2.25;1.20;;;19.70;51.80;;;;;;3127127;28;20049;-81
2021/06/02 02:37:55;;;;;;;1.30;1.20;;;19.70;51.80;;;;;;3127719;28;20045;-82
2021/06/02 02:39:30;;;;;;;1.45;1.20;;;19.70;51.80;;;;;;3127167;28;20045;-83
2021/06/02 02:41:09;;;;;;;1.25;1.15;;;19.70;51.90;;;;;;3126619;28;20152;-82
2021/06/02 02:42:43;;;;;;;2.42;1.10;;;19.70;51.80;;;;;;3126711;28;20063;-81
2021/06/02 02:44:32;;;;;;;1.40;1.20;;;19.70;51.90;;;;;;3127296;28;20060;-82
2021/06/02 02:46:07;;;;;;;1.27;1.10;;;19.70;51.80;;;;;;3125462;28;20038;-82
2021/06/02 02:47:44;;;;;;;1.45;1.20;;;19.70;51.80;;;;;;3127547;28;20457;-80
2021/06/02 02:49:20;;;;;;;1.02;0.90;;;19.70;51.80;;;;;;3127568;28;20050;-82
2021/06/02 02:51:04;;;;;;;1.25;1.15;;;19.70;51.80;;;;;;3126483;28;20049;-82
2021/06/02 02:52:39;;;;;;;;;;;19.70;51.80;;;;;;3128200;28;20482;-81
2021/06/02 02:54:11;;;;;;;1.52;1.20;;;19.70;51.80;;;;;;3127816;28;20321;-82
2021/06/02 02:55:42;;;;;;;1.10;1.00;;;19.70;51.80;;;;;;3126705;28;20053;-81
2021/06/02 02:57:17;;;;;;;1.30;1.05;;;19.70;51.80;;;;;;3127203;28;20509;-82
2021/06/02 02:58:56;;;;;;;1.20;1.10;;;19.70;51.80;;;;;;3126992;28;20213;-82
2021/06/02 03:00:32;;;;;;;1.60;1.35;;;19.70;51.80;;;;;;3125261;28;20049;-81
2021/06/02 03:02:06;;;;;;;1.05;0.95;;;19.70;51.80;;;;;;3126573;28;20052;-82
2021/06/02 03:03:39;;;;;;;1.42;1.00;;;19.70;51.70;;;;;;3127433;28;20060;-82
2021/06/02 03:05:13;;;;;;;;;;;19.70;51.70;;;;;;3127365;28;20052;-82
2021/06/02 03:06:46;;;;;;;1.23;1.08;;;19.70;51.70;;;;;;3127619;28;19948;-82
2021/06/02 03:08:18;;;;;;;1.10;1.00;;;19.70;51.70;;;;;;3126247;28;20041;-82
2021/06/02 03:09:53;;;;;;;1.33;1.13;;;19.70;51.80;;;;;;3126329;28;20088;-80
2021/06/02 03:11:29;;;;;;;1.25;1.10;;;19.70;51.70;;;;;;3126670;28;20049;-81
2021/06/02 03:13:01;;;;;;;1.33;1.23;;;19.70;51.80;;;;;;3127254;28;20057;-82
2021/06/02 03:14:48;;;;;;;1.42;1.30;;;19.70;51.80;;;;;;3126907;28;20080;-82
2021/06/02 03:16:22;;;;;;;1.15;1.05;;;19.70;51.80;;;;;;3125802;28;20065;-83
2021/06/02 03:17:57;;;;;;;1.30;1.10;;;19.70;51.80;;;;;;3127034;28;20080;-82
2021/06/02 03:19:33;;;;;;;2.40;1.10;;;19.70;51.80;;;;;;3127201;28;20049;-83
2021/06/02 03:21:28;;;;;;;1.25;1.10;;;19.70;51.80;;;;;;3126178;28;20167;-81
2021/06/02 03:23:22;;;;;;;1.70;1.08;;;19.70;51.90;;;;;;3119632;28;20045;-82
2021/06/02 03:25:01;;;;;;;1.10;1.00;;;19.70;51.80;;;;;;3127130;28;20045;-82
2021/06/02 03:26:33;;;;;;;1.27;1.08;;;19.70;51.70;;;;;;3126471;28;20049;-81
2021/06/02 03:28:09;;;;;;;1.08;0.98;;;19.70;51.70;;;;;;3127262;28;20150;-83
2021/06/02 03:29:47;;;;;;;2.15;1.17;;;19.70;52.00;;;;;;3127019;28;20053;-83
2021/06/02 03:31:23;;;;;;;0.90;0.90;;;19.70;51.80;;;;;;3125946;28;20050;-82
2021/06/02 03:33:03;;;;;;;0.90;0.90;;;19.70;51.70;;;;;;3127012;28;20056;-83
2021/06/02 03:34:42;;;;;;;1.27;1.00;;;19.70;51.80;;;;;;3127381;28;20045;-82
2021/06/02 03:36:29;;;;;;;1.10;1.00;;;19.70;51.80;;;;;;3126086;28;20048;-82
2021/06/02 03:38:09;;;;;;;1.15;1.05;;;19.70;51.80;;;;;;3126961;28;20407;-82
2021/06/02 03:39:50;;;;;;;2.22;1.10;;;19.70;51.70;;;;;;3127018;28;20049;-82
2021/06/02 03:41:24;;;;;;;1.10;1.00;;;19.70;51.70;;;;;;3126564;28;20049;-82
2021/06/02 03:43:00;;;;;;;0.80;0.80;;;19.70;51.70;;;;;;3127908;28;20061;-82
2021/06/02 03:44:40;;;;;;;1.10;1.00;;;19.70;51.70;;;;;;3127501;28;20103;-81
2021/06/02 03:46:38;;;;;;;1.27;1.00;;;19.70;51.70;;;;;;3126394;28;20056;-81
2021/06/02 03:48:31;;;;;;;1.55;1.00;;;19.70;51.80;;;;;;3127072;28;20050;-82
2021/06/02 03:50:04;;;;;;;1.88;1.08;;;19.70;51.80;;;;;;3127637;28;20053;-82
2021/06/02 03:51:37;;;;;;;1.42;1.00;;;19.70;51.70;;;;;;3127739;28;20049;-82
2021/06/02 03:53:11;;;;;;;;;;;19.70;51.70;;;;;;3135229;22;20459;-79
2021/06/02 03:54:45;;;;;;;1.27;1.10;;;19.70;51.70;;;;;;3110732;28;19925;-78
2021/06/02 03:56:23;;;;;;;1.77;1.02;;;19.70;51.70;;;;;;3109427;28;20557;-79
2021/06/02 03:57:58;;;;;;;1.02;0.93;;;19.70;51.80;;;;;;3109744;28;20045;-78
2021/06/02 03:59:44;;;;;;;1.00;0.90;;;19.70;51.80;;;;;;3109634;28;20139;-78
2021/06/02 04:01:20;;;;;;;0.98;0.88;;;19.70;51.80;;;;;;3105761;28;20458;-78
2021/06/02 04:03:04;;;;;;;0.98;0.80;;;19.70;51.70;;;;;;3109764;28;20050;-78
2021/06/02 04:04:37;;;;;;;1.20;1.08;;;19.70;51.80;;;;;;3110192;28;20096;-78
2021/06/02 04:06:13;;;;;;;0.93;0.88;;;19.70;51.70;;;;;;3109246;28;20046;-79
2021/06/02 04:07:46;;;;;;;0.88;0.80;;;19.70;51.80;;;;;;3109519;28;20046;-78
2021/06/02 04:09:22;;;;;;;1.05;0.90;;;19.70;51.80;;;;;;3110108;28;20046;-78
2021/06/02 04:11:06;;;;;;;0.90;0.80;;;19.70;51.70;;;;;;3108842;28;20038;-79
2021/06/02 04:12:37;;;;;;;;;;;19.70;51.80;;;;;;3109987;28;20483;-78
2021/06/02 04:14:08;;;;;;;0.82;0.80;;;19.70;51.70;;;;;;3109769;28;20062;-79
2021/06/02 04:15:42;;;;;;;0.98;0.90;;;19.70;51.70;;;;;;3108255;28;20081;-78
2021/06/02 04:17:13;;;;;;;1.00;0.90;;;19.70;51.70;;;;;;3110107;28;20041;-80
2021/06/02 04:18:46;;;;;;;1.25;0.80;;;19.70;51.70;;;;;;3109664;28;20080;-80
2021/06/02 04:20:18;;;;;;;1.17;1.08;;;19.70;51.70;;;;;;3109401;28;20073;-78
2021/06/02 04:21:49;;;;;;;1.05;0.90;;;19.70;51.80;;;;;;3111839;28;20103;-79
2021/06/02 04:23:20;;;;;;;0.80;0.80;;;19.70;51.70;;;;;;3112131;28;20046;-78
2021/06/02 04:24:51;;;;;;;0.93;0.80;;;19.70;51.70;;;;;;3111797;28;20054;-78
2021/06/02 04:26:22;;;;;;;0.80;0.80;;;19.70;51.70;;;;;;3111364;28;20061;-78
2021/06/02 04:27:53;;;;;;;1.23;0.85;;;19.70;51.70;;;;;;3112108;28;20056;-78
2021/06/02 04:29:25;;;;;;;0.70;0.70;;;19.70;51.70;;;;;;3112360;28;20050;-78
2021/06/02 04:31:00;;;;;;;1.00;0.90;;;19.70;51.70;;;;;;3110323;28;20112;-78
2021/06/02 04:32:37;;;;;;;1.30;0.93;;;19.70;51.70;;;;;;3111812;28;20061;-78
2021/06/02 04:34:09;;;;;;;1.20;0.80;;;19.70;51.80;;;;;;3112010;28;20088;-78
2021/06/02 04:35:40;;;;;;;1.40;1.08;;;19.70;51.70;;;;;;3111331;28;20112;-79
2021/06/02 04:37:12;;;;;;;0.80;0.80;;;19.70;51.70;;;;;;3111763;28;20081;-78
2021/06/02 04:38:43;;;;;;;1.55;0.80;;;19.70;51.80;;;;;;3111837;28;20105;-78
2021/06/02 04:40:14;;;;;;;1.10;0.80;;;19.70;51.70;;;;;;3111254;28;20049;-78
2021/06/02 04:41:46;;;;;;;0.80;0.80;;;19.70;51.70;;;;;;3111639;28;20487;-78
2021/06/02 04:43:17;;;;;;;0.95;0.82;;;19.70;51.70;;;;;;3111965;28;20046;-78
2021/06/02 04:44:48;;;;;;;0.90;0.90;;;19.70;51.70;;;;;;3111555;28;20054;-78
2021/06/02 04:46:20;;;;;;;1.25;0.90;;;19.70;51.70;;;;;;3110833;28;20056;-78
2021/06/02 04:47:50;;;;;;;1.00;0.80;;;19.70;51.70;;;;;;3111800;28;20105;-79
2021/06/02 04:49:24;;;;;;;0.85;0.85;;;19.70;51.70;;;;;;3111973;28;20050;-78
2021/06/02 04:50:59;;;;;;;1.33;0.90;;;19.70;51.80;;;;;;3110676;28;20077;-78
2021/06/02 04:52:54;;;;;;;1.35;0.90;;;19.70;51.80;;;;;;3111560;28;20060;-78
2021/06/02 04:54:57;;;;;;;1.25;0.90;;;19.70;51.80;;;;;;3111945;28;20455;-79
2021/06/02 04:56:55;;;;;;;1.17;0.90;;;19.70;51.80;;;;;;3111143;28;20134;-78
2021/06/02 04:59:00;;;;;;;0.80;0.80;;;19.70;51.80;;;;;;3111730;28;20054;-78
2021/06/02 05:00:43;;;;;;;1.48;0.88;;;19.70;51.80;;;;;;3110222;28;20123;-80
2021/06/02 05:02:32;;;;;;;1.58;0.90;;;19.70;51.80;;;;;;3111587;28;20050;-80
2021/06/02 05:04:40;;;;;;;1.25;0.98;;;19.70;51.80;;;;;;3111658;28;20084;-79
2021/06/02 05:06:48;;;;;;;1.60;0.90;;;19.70;51.80;;;;;;3110364;28;20667;-79
2021/06/02 05:08:47;;;;;;;1.48;0.80;;;19.70;51.80;;;;;;3079854;28;20055;-78
2021/06/02 05:10:46;;;;;;;1.15;1.00;;;19.70;51.70;;;;;;3110702;28;20077;-78
2021/06/02 05:12:35;;;;;;;1.13;0.80;;;19.70;51.70;;;;;;3111249;28;20094;-78
2021/06/02 05:14:55;;;;;;;1.13;0.82;;;19.70;51.80;;;;;;3111514;28;20080;-78
2021/06/02 05:16:47;;;;;;;1.15;0.90;;;19.70;51.80;;;;;;3110269;28;20081;-79
2021/06/02 05:18:27;;;;;;;1.02;0.80;;;19.70;51.80;;;;;;3111426;28;20085;-79
2021/06/02 05:20:40;;;;;;;0.77;0.70;;;19.70;51.80;;;;;;3110942;28;20050;-78
2021/06/02 05:22:34;;;;;;;0.82;0.82;;;19.70;51.80;;;;;;3111145;28;20050;-79
2021/06/02 05:24:53;;;;;;;0.90;0.90;;;19.70;51.80;;;;;;3111289;28;20046;-79
2021/06/02 05:26:45;;;;;;;0.90;0.70;;;19.70;51.80;;;;;;3110587;28;20092;-78
2021/06/02 05:28:38;;;;;;;1.40;1.00;;;19.70;51.80;;;;;;3080662;28;20098;-78
2021/06/02 05:30:46;;;;;;;0.98;0.88;;;19.70;51.70;;;;;;3109751;28;20053;-78
2021/06/02 05:32:59;;;;;;;1.00;0.82;;;19.70;51.80;;;;;;3110786;28;20487;-78
2021/06/02 05:34:57;;;;;;;1.42;1.00;;;19.70;51.80;;;;;;3111190;28;20053;-77
2021/06/02 05:36:39;;;;;;;0.82;0.80;;;19.70;51.80;;;;;;3110567;28;20054;-78
2021/06/02 05:38:43;;;;;;;1.33;0.90;;;19.70;51.80;;;;;;3111082;28;20049;-78
2021/06/02 05:40:55;;;;;;;1.42;0.93;;;19.70;51.80;;;;;;3110142;28;20046;-78
2021/06/02 05:42:37;;;;;;;0.80;0.80;;;19.70;51.80;;;;;;3073938;28;20051;-79
2021/06/02 05:44:42;;;;;;;0.80;0.70;;;19.70;51.90;;;;;;3110753;28;20538;-78
2021/06/02 05:46:33;;;;;;;0.80;0.80;;;19.70;51.80;;;;;;3109559;28;20049;-78
2021/06/02 05:48:53;;;;;;;1.15;0.75;;;19.80;51.90;;;;;;3100817;28;20084;-78
2021/06/02 05:50:53;;;;;;;1.08;0.95;;;19.70;51.80;;;;;;3072616;29;20470;-78
2021/06/02 05:52:39;;;;;;;2.05;1.10;;;19.70;51.80;;;;;;3084673;28;20186;-78
2021/06/02 05:54:48;;;;;;;1.15;0.80;;;19.70;51.80;;;;;;3111364;28;20060;-79
2021/06/02 05:57:03;;;;;;;0.98;0.80;;;19.80;51.90;;;;;;3110247;28;20046;-77
2021/06/02 05:58:48;;;;;;;1.20;0.80;;;19.70;51.80;;;;;;3110837;28;20506;-80
2021/06/02 06:00:29;;;;;;;1.38;0.75;;;19.70;51.90;;;;;;3109314;28;20054;-78
2021/06/02 06:02:31;;;;;;;0.70;0.70;;;19.80;51.90;;;;;;3110890;28;20045;-80
2021/06/02 06:04:33;;;;;;;0.77;0.77;;;19.70;51.90;;;;;;3089707;28;20065;-79
2021/06/02 06:06:13;;;;;;;1.35;0.90;;;19.70;51.90;;;;;;3110277;28;20506;-78
2021/06/02 06:08:13;;;;;;;2.15;1.05;;;19.80;51.90;;;;;;3110646;28;20049;-78
2021/06/02 06:10:03;;;;;;;1.42;0.98;;;19.80;51.90;;;;;;3110549;28;20050;-77
2021/06/02 06:12:01;;;;;;;0.95;0.90;;;19.80;51.90;;;;;;3111128;28;20502;-78
2021/06/02 06:14:05;;;;;;;0.80;0.80;;;19.80;51.90;;;;;;3111729;28;20081;-79
2021/06/02 06:16:18;;;;;;;1.95;0.90;;;19.70;51.90;;;;;;3110356;28;20506;-78
2021/06/02 06:17:55;;;;;;;1.40;1.00;;;19.80;51.90;;;;;;3111485;28;20085;-78
2021/06/02 06:19:53;;;;;;;1.00;0.88;;;19.70;51.90;;;;;;3110569;28;20449;-78
2021/06/02 06:21:55;;;;;;;0.90;0.80;;;19.80;52.00;;;;;;3072321;29;20101;-79
2021/06/02 06:23:44;;;;;;;0.80;0.80;;;19.80;51.90;;;;;;3107354;28;20081;-78
2021/06/02 06:25:18;;;;;;;1.48;0.80;;;19.80;51.90;;;;;;3109944;28;20085;-77
2021/06/02 06:26:53;;;;;;;1.25;0.98;;;19.80;51.90;;;;;;3110306;28;20104;-78
2021/06/02 06:28:28;;;;;;;1.52;0.82;;;19.80;51.90;;;;;;3111030;28;20057;-78
2021/06/02 06:30:02;;;;;;;1.52;1.05;;;19.80;51.90;;;;;;3110147;28;20061;-78
2021/06/02 06:31:46;;;;;;;1.27;0.90;;;19.80;51.90;;;;;;3109266;28;20418;-78
2021/06/02 06:33:17;;;;;;;1.05;0.80;;;19.80;51.90;;;;;;3110633;28;20177;-78
2021/06/02 06:34:49;;;;;;;1.63;0.90;;;19.80;51.90;;;;;;3110531;28;20077;-79
2021/06/02 06:36:21;;;;;;;0.98;0.82;;;19.70;51.90;;;;;;3109919;28;20136;-78
2021/06/02 06:37:53;;;;;;;;;;;19.80;51.90;;;;;;3110596;28;20053;-78
2021/06/02 06:39:29;;;;;;;2.55;0.88;;;19.80;51.90;;;;;;3110529;28;20401;-78
2021/06/02 06:41:01;;;;;;;1.38;1.00;;;19.80;51.90;;;;;;3109920;28;20076;-78
2021/06/02 06:42:36;;;;;;;2.17;1.10;;;19.80;52.00;;;;;;3110076;28;20684;-77
2021/06/02 06:44:07;;;;;;;0.98;0.88;;;19.80;52.00;;;;;;3110040;28;20057;-79
2021/06/02 06:45:39;;;;;;;1.70;0.90;;;19.70;51.90;;;;;;3108974;28;20072;-78
2021/06/02 06:47:12;;;;;;;1.17;0.95;;;19.80;51.90;;;;;;3110357;28;20112;-78
2021/06/02 06:48:44;;;;;;;1.17;0.98;;;19.70;51.90;;;;;;3110280;28;20149;-79
2021/06/02 06:50:16;;;;;;;1.60;0.88;;;19.70;51.90;;;;;;3109396;28;20081;-78
2021/06/02 06:51:52;;;;;;;1.60;0.93;;;19.80;52.00;;;;;;3109931;28;20077;-78
2021/06/02 06:53:23;;;;;;;1.13;0.90;;;19.80;52.00;;;;;;3110223;28;20054;-79
2021/06/02 06:54:55;;;;;;;0.90;0.88;;;19.80;52.00;;;;;;3109846;28;20714;-78
2021/06/02 06:56:28;;;;;;;1.20;1.10;;;19.80;52.00;;;;;;3109895;28;20088;-78
2021/06/02 06:57:59;;;;;;;;;;;19.80;52.00;;;;;;3110391;28;20058;-78
2021/06/02 06:59:30;;;;;;;1.17;0.85;;;19.80;51.90;;;;;;3110403;28;19925;-80
2021/06/02 07:01:01;;;;;;;1.15;0.80;;;19.80;51.90;;;;;;3108758;28;20065;-78
2021/06/02 07:02:32;;;;;;;1.40;0.90;;;19.80;51.90;;;;;;3110156;28;20080;-78
2021/06/02 07:04:04;;;;;;;1.00;0.90;;;19.80;51.90;;;;;;3110294;28;20709;-78
2021/06/02 07:05:35;;;;;;;0.80;0.80;;;19.80;51.90;;;;;;3109438;28;20046;-78
2021/06/02 07:07:07;;;;;;;1.58;1.05;;;19.80;52.00;;;;;;3110185;28;20081;-78
2021/06/02 07:08:38;;;;;;;1.08;0.90;;;19.80;51.90;;;;;;3110354;28;20132;-78
2021/06/02 07:10:10;;;;;;;2.10;0.95;;;19.80;52.00;;;;;;3109615;28;20073;-78
2021/06/02 07:11:44;;;;;;;0.73;0.73;;;19.80;52.00;;;;;;3109981;28;20045;-79
2021/06/02 07:13:15;;;;;;;1.90;0.90;;;19.80;52.00;;;;;;3110031;28;20097;-78
2021/06/02 07:14:46;;;;;;;1.58;1.10;;;19.70;51.90;;;;;;3109964;28;20119;-78
2021/06/02 07:16:18;;;;;;;1.48;0.90;;;19.80;52.00;;;;;;3108970;28;20061;-78
2021/06/02 07:17:49;;;;;;;0.95;0.88;;;19.80;52.00;;;;;;3109877;28;20216;-78
2021/06/02 07:19:21;;;;;;;1.35;1.00;;;19.80;52.00;;;;;;3109982;28;20502;-79
2021/06/02 07:20:52;;;;;;;1.10;0.80;;;19.80;52.00;;;;;;3108959;28;20076;-79
2021/06/02 07:22:23;;;;;;;0.88;0.80;;;19.70;52.00;;;;;;3109993;28;20112;-78
2021/06/02 07:23:54;;;;;;;1.25;0.80;;;19.80;52.00;;;;;;3109980;28;20084;-78
2021/06/02 07:25:26;;;;;;;0.80;0.80;;;19.80;52.00;;;;;;3109657;28;20065;-78
2021/06/02 07:26:59;;;;;;;0.88;0.80;;;19.80;52.00;;;;;;3109953;28;20105;-79
2021/06/02 07:28:35;;;;;;;1.52;1.00;;;19.80;52.00;;;;;;3110178;28;20112;-78
2021/06/02 07:30:07;;;;;;;1.30;0.90;;;19.80;52.00;;;;;;3108160;28;20045;-78
2021/06/02 07:31:38;;;;;;;1.15;0.77;;;19.80;52.00;;;;;;3110149;28;20514;-78
2021/06/02 07:33:09;;;;;;;1.60;1.00;;;19.80;52.00;;;;;;3109866;28;20045;-78
2021/06/02 07:34:40;;;;;;;1.23;0.80;;;19.80;52.00;;;;;;3109854;28;20111;-78
2021/06/02 07:36:11;;;;;;;2.78;1.08;;;19.80;52.00;;;;;;3109503;28;20073;-78
2021/06/02 07:37:42;;;;;;;1.35;0.80;;;19.80;51.90;;;;;;3109942;28;20054;-78
2021/06/02 07:39:13;;;;;;;1.33;0.85;;;19.80;52.00;;;;;;3109828;28;20092;-79
2021/06/02 07:40:44;;;;;;;1.25;0.80;;;19.80;51.90;;;;;;3108753;28;20518;-78
2021/06/02 07:42:16;;;;;;;1.17;1.00;;;19.70;51.90;;;;;;3109775;28;20046;-78
2021/06/02 07:43:47;;;;;;;1.30;0.82;;;19.80;51.90;;;;;;3109928;28;20502;-78
2021/06/02 07:45:18;;;;;;;1.25;0.80;;;19.80;51.90;;;;;;3108533;28;20081;-78
2021/06/02 07:46:49;;;;;;;1.50;0.82;;;19.80;51.90;;;;;;3109762;28;20084;-78
2021/06/02 07:48:21;;;;;;;0.80;0.80;;;19.80;52.00;;;;;;3109926;28;20346;-78
2021/06/02 07:49:52;;;;;;;1.15;0.80;;;19.80;51.90;;;;;;3109912;28;20077;-77
2021/06/02 07:51:23;;;;;;;0.90;0.80;;;19.80;52.00;;;;;;3109607;28;20105;-78
2021/06/02 07:52:54;;;;;;;1.20;0.88;;;19.80;52.00;;;;;;3109850;28;20088;-78
2021/06/02 07:54:25;;;;;;;1.05;0.80;;;19.80;51.90;;;;;;3110706;28;20057;-80
2021/06/02 07:55:56;;;;;;;1.35;1.00;;;19.80;51.90;;;;;;3111963;28;20100;-78
2021/06/02 07:57:28;;;;;;;1.75;0.88;;;19.80;51.90;;;;;;3112010;28;20536;-79
2021/06/02 07:58:59;;;;;;;1.08;0.95;;;19.80;51.90;;;;;;3112133;28;20116;-78
2021/06/02 08:00:30;;;;;;;0.93;0.70;;;19.80;51.90;;;;;;3110836;28;20510;-77
2021/06/02 08:02:02;;;;;;;1.52;0.80;;;19.80;51.90;;;;;;3112399;28;20085;-78
2021/06/02 08:03:33;;;;;;;0.95;0.85;;;19.80;52.00;;;;;;3112218;28;20049;-78
2021/06/02 08:05:05;;;;;;;1.25;0.80;;;19.80;52.00;;;;;;3111754;28;20494;-79
2021/06/02 08:06:37;;;;;;;1.20;0.80;;;19.80;52.00;;;;;;3112126;28;20081;-78
2021/06/02 08:08:09;;;;;;;1.92;0.90;;;19.80;51.90;;;;;;3112278;28;20417;-78
2021/06/02 08:09:40;;;;;;;1.42;0.70;;;19.80;51.90;;;;;;3112013;28;20057;-78
2021/06/02 08:11:11;;;;;;;0.80;0.80;;;19.80;52.00;;;;;;3111604;28;20064;-79
2021/06/02 08:12:44;;;;;;;1.48;0.73;;;19.80;52.00;;;;;;3112052;28;20049;-79
2021/06/02 08:14:15;;;;;;;1.27;0.80;;;19.80;52.00;;;;;;3112259;28;20061;-79
2021/06/02 08:15:46;;;;;;;1.10;0.82;;;19.80;52.00;;;;;;3110770;28;20065;-78
2021/06/02 08:17:17;;;;;;;1.70;0.80;;;19.80;51.90;;;;;;3111868;28;20049;-78
2021/06/02 08:18:48;;;;;;;1.77;0.85;;;19.80;52.00;;;;;;3112123;28;20529;-78
2021/06/02 08:20:19;;;;;;;1.40;0.90;;;19.80;51.90;;;;;;3111263;28;20085;-78
2021/06/02 08:21:50;;;;;;;0.98;0.88;;;19.80;51.90;;;;;;3111838;28;20081;-78
2021/06/02 08:23:21;;;;;;;1.55;1.00;;;19.80;51.90;;;;;;3112153;28;20081;-78
2021/06/02 08:24:52;;;;;;;0.90;0.80;;;19.80;52.00;;;;;;3112019;28;20509;-79
2021/06/02 08:26:23;;;;;;;0.68;0.68;;;19.80;51.90;;;;;;3111214;28;20092;-78
2021/06/02 08:27:55;;;;;;;1.65;0.73;;;19.80;51.90;;;;;;3111824;28;20049;-79
2021/06/02 08:29:26;;;;;;;0.88;0.80;;;19.80;52.00;;;;;;3111933;28;20100;-78
2021/06/02 08:30:57;;;;;;;1.52;0.80;;;19.80;52.00;;;;;;3110257;28;20452;-79
2021/06/02 08:32:28;;;;;;;1.10;0.70;;;19.80;52.00;;;;;;3111800;28;20081;-79
2021/06/02 08:34:00;;;;;;;2.35;0.93;;;19.80;51.90;;;;;;3112283;28;20046;-78